Aviation Digital Data Service (ADDS)

Output produced by METARs form (0124 UTC 23 July 2017)
found at http://www.aviationweather.gov/adds/metars/
 
SEGU 222245Z 2300/2324 21012KT 9999 FEW030 SCT100 
     FM230800 24008KT 9999 BKN020 BKN100 
     FM231400 18005KT 9999 SCT026 BKN100 
     FM231900 12005KT 9999 SCT030 SCT100 TX29/2320Z TN21/2307Z
       
SELT 222245Z 2300/2324 18010KT 9999 SCT023 
     FM230600 18005KT 9999 BKN023 
     FM231200 18010KT 9999 SCT033 
     FM231800 18015KT 9999 SCT030 TX20/2319Z TN08/2311Z
       
SEMT 222245Z 2300/2324 20006KT 9999 BKN020 
     FM231200 22010KT 9999 SCT020 
     FM231800 20012KT 9999 BKN026 TX28/2320Z TN21/2310Z
       
SEQM 222245Z 2300/2324 03005KT 9999 SCT030 
     BECMG 2306/2308 15005KT BKN030 
     FM231200 VRB03KT 9999 SCT033 
     FM231800 36015KT 9999 SCT033 SCT100 TX25/2319Z TN08/2311Z